sensor_id;sensor_type;location;lat;lon;timestamp;P1;P2;P0
55518;PMS5003;41724;51.176;-0.708;2023-11-22T00:02:26;4;3;
55518;PMS5003;41724;51.176;-0.708;2023-11-22T00:04:53;4;3;
55518;PMS5003;41724;51.176;-0.708;2023-11-22T00:07:20;3;3;
55518;PMS5003;41724;51.176;-0.708;2023-11-22T00:09:47;2;2;
55518;PMS5003;41724;51.176;-0.708;2023-11-22T00:12:14;2;2;
55518;PMS5003;41724;51.176;-0.708;2023-11-22T00:14:41;3;2;
55518;PMS5003;41724;51.176;-0.708;2023-11-22T00:17:08;6;5;
55518;PMS5003;41724;51.176;-0.708;2023-11-22T00:19:36;3;3;
55518;PMS5003;41724;51.176;-0.708;2023-11-22T00:22:03;3;3;
55518;PMS5003;41724;51.176;-0.708;2023-11-22T00:24:31;3;3;
55518;PMS5003;41724;51.176;-0.708;2023-11-22T00:26:58;6;5;
55518;PMS5003;41724;51.176;-0.708;2023-11-22T00:29:25;4;4;
55518;PMS5003;41724;51.176;-0.708;2023-11-22T00:31:52;2;2;
55518;PMS5003;41724;51.176;-0.708;2023-11-22T00:34:19;2;2;
55518;PMS5003;41724;51.176;-0.708;2023-11-22T00:36:46;4;3;
55518;PMS5003;41724;51.176;-0.708;2023-11-22T00:39:14;4;3;
55518;PMS5003;41724;51.176;-0.708;2023-11-22T00:41:41;9;4;
55518;PMS5003;41724;51.176;-0.708;2023-11-22T00:44:08;2;2;
55518;PMS5003;41724;51.176;-0.708;2023-11-22T00:46:35;4;4;
55518;PMS5003;41724;51.176;-0.708;2023-11-22T00:49:02;3;3;
55518;PMS5003;41724;51.176;-0.708;2023-11-22T00:51:30;5;5;
55518;PMS5003;41724;51.176;-0.708;2023-11-22T00:53:57;4;3;
55518;PMS5003;41724;51.176;-0.708;2023-11-22T00:56:24;4;3;
55518;PMS5003;41724;51.176;-0.708;2023-11-22T00:58:51;2;2;
55518;PMS5003;41724;51.176;-0.708;2023-11-22T01:01:18;3;3;
55518;PMS5003;41724;51.176;-0.708;2023-11-22T01:03:46;3;3;
55518;PMS5003;41724;51.176;-0.708;2023-11-22T01:06:13;4;3;
55518;PMS5003;41724;51.176;-0.708;2023-11-22T01:08:40;3;2;
55518;PMS5003;41724;51.176;-0.708;2023-11-22T01:11:07;5;5;
55518;PMS5003;41724;51.176;-0.708;2023-11-22T01:13:35;4;4;
55518;PMS5003;41724;51.176;-0.708;2023-11-22T01:16:02;9;7;
55518;PMS5003;41724;51.176;-0.708;2023-11-22T01:18:29;6;5;
55518;PMS5003;41724;51.176;-0.708;2023-11-22T01:20:56;4;4;
55518;PMS5003;41724;51.176;-0.708;2023-11-22T01:23:23;4;4;
55518;PMS5003;41724;51.176;-0.708;2023-11-22T01:25:51;6;5;
55518;PMS5003;41724;51.176;-0.708;2023-11-22T01:28:19;7;6;
55518;PMS5003;41724;51.176;-0.708;2023-11-22T01:30:46;3;3;
55518;PMS5003;41724;51.176;-0.708;2023-11-22T01:33:13;4;4;
55518;PMS5003;41724;51.176;-0.708;2023-11-22T01:35:40;5;4;
55518;PMS5003;41724;51.176;-0.708;2023-11-22T01:38:08;4;4;
55518;PMS5003;41724;51.176;-0.708;2023-11-22T01:40:35;4;4;
55518;PMS5003;41724;51.176;-0.708;2023-11-22T01:43:12;4;4;
55518;PMS5003;41724;51.176;-0.708;2023-11-22T01:45:40;4;3;
55518;PMS5003;41724;51.176;-0.708;2023-11-22T01:48:07;3;3;
55518;PMS5003;41724;51.176;-0.708;2023-11-22T01:50:34;4;4;
55518;PMS5003;41724;51.176;-0.708;2023-11-22T01:53:01;5;5;
55518;PMS5003;41724;51.176;-0.708;2023-11-22T01:55:29;7;7;
55518;PMS5003;41724;51.176;-0.708;2023-11-22T01:57:57;5;5;
55518;PMS5003;41724;51.176;-0.708;2023-11-22T02:00:24;6;5;
55518;PMS5003;41724;51.176;-0.708;2023-11-22T02:02:54;3;2;
55518;PMS5003;41724;51.176;-0.708;2023-11-22T02:05:21;4;4;
55518;PMS5003;41724;51.176;-0.708;2023-11-22T02:07:48;9;9;
55518;PMS5003;41724;51.176;-0.708;2023-11-22T02:10:16;8;6;
55518;PMS5003;41724;51.176;-0.708;2023-11-22T02:12:42;3;3;
55518;PMS5003;41724;51.176;-0.708;2023-11-22T02:15:10;4;4;
55518;PMS5003;41724;51.176;-0.708;2023-11-22T02:17:37;4;4;
55518;PMS5003;41724;51.176;-0.708;2023-11-22T02:20:05;5;5;
55518;PMS5003;41724;51.176;-0.708;2023-11-22T02:22:33;6;5;
55518;PMS5003;41724;51.176;-0.708;2023-11-22T02:25:00;4;4;
55518;PMS5003;41724;51.176;-0.708;2023-11-22T02:27:27;5;4;
55518;PMS5003;41724;51.176;-0.708;2023-11-22T02:29:54;5;5;
55518;PMS5003;41724;51.176;-0.708;2023-11-22T02:32:21;5;5;
55518;PMS5003;41724;51.176;-0.708;2023-11-22T02:34:48;5;5;
55518;PMS5003;41724;51.176;-0.708;2023-11-22T02:37:16;7;6;
55518;PMS5003;41724;51.176;-0.708;2023-11-22T02:39:46;5;4;
55518;PMS5003;41724;51.176;-0.708;2023-11-22T02:42:22;4;4;
55518;PMS5003;41724;51.176;-0.708;2023-11-22T02:44:49;6;5;
55518;PMS5003;41724;51.176;-0.708;2023-11-22T02:47:17;7;7;
55518;PMS5003;41724;51.176;-0.708;2023-11-22T02:49:44;4;4;
55518;PMS5003;41724;51.176;-0.708;2023-11-22T02:52:11;4;4;
55518;PMS5003;41724;51.176;-0.708;2023-11-22T02:54:40;7;6;
55518;PMS5003;41724;51.176;-0.708;2023-11-22T02:57:08;4;3;
55518;PMS5003;41724;51.176;-0.708;2023-11-22T02:59:35;3;3;
55518;PMS5003;41724;51.176;-0.708;2023-11-22T03:02:02;3;3;
55518;PMS5003;41724;51.176;-0.708;2023-11-22T03:04:29;4;4;
55518;PMS5003;41724;51.176;-0.708;2023-11-22T03:06:59;5;5;
55518;PMS5003;41724;51.176;-0.708;2023-11-22T03:09:25;4;4;
55518;PMS5003;41724;51.176;-0.708;2023-11-22T03:11:53;3;3;
55518;PMS5003;41724;51.176;-0.708;2023-11-22T03:14:21;5;5;
55518;PMS5003;41724;51.176;-0.708;2023-11-22T03:16:48;4;4;
55518;PMS5003;41724;51.176;-0.708;2023-11-22T03:19:15;7;6;
55518;PMS5003;41724;51.176;-0.708;2023-11-22T03:21:42;4;3;
55518;PMS5003;41724;51.176;-0.708;2023-11-22T03:24:09;4;3;
55518;PMS5003;41724;51.176;-0.708;2023-11-22T03:26:37;5;4;
55518;PMS5003;41724;51.176;-0.708;2023-11-22T03:29:04;3;3;
55518;PMS5003;41724;51.176;-0.708;2023-11-22T03:31:31;4;4;
55518;PMS5003;41724;51.176;-0.708;2023-11-22T03:33:58;5;5;
55518;PMS5003;41724;51.176;-0.708;2023-11-22T03:36:25;6;6;
55518;PMS5003;41724;51.176;-0.708;2023-11-22T03:38:53;5;4;
55518;PMS5003;41724;51.176;-0.708;2023-11-22T03:41:20;6;4;
55518;PMS5003;41724;51.176;-0.708;2023-11-22T03:43:47;5;5;
55518;PMS5003;41724;51.176;-0.708;2023-11-22T03:46:14;4;4;
55518;PMS5003;41724;51.176;-0.708;2023-11-22T03:48:41;3;2;
55518;PMS5003;41724;51.176;-0.708;2023-11-22T03:51:09;5;3;
55518;PMS5003;41724;51.176;-0.708;2023-11-22T03:53:36;2;2;
55518;PMS5003;41724;51.176;-0.708;2023-11-22T03:56:03;7;4;
55518;PMS5003;41724;51.176;-0.708;2023-11-22T03:58:30;3;3;
55518;PMS5003;41724;51.176;-0.708;2023-11-22T04:00:58;4;4;
55518;PMS5003;41724;51.176;-0.708;2023-11-22T04:03:25;4;4;
55518;PMS5003;41724;51.176;-0.708;2023-11-22T04:05:52;6;4;
55518;PMS5003;41724;51.176;-0.708;2023-11-22T04:08:19;3;3;
55518;PMS5003;41724;51.176;-0.708;2023-11-22T04:10:47;3;3;
55518;PMS5003;41724;51.176;-0.708;2023-11-22T04:13:14;4;2;
55518;PMS5003;41724;51.176;-0.708;2023-11-22T04:15:41;3;3;
55518;PMS5003;41724;51.176;-0.708;2023-11-22T04:18:08;4;4;
55518;PMS5003;41724;51.176;-0.708;2023-11-22T04:20:36;4;4;
55518;PMS5003;41724;51.176;-0.708;2023-11-22T04:23:03;3;3;
55518;PMS5003;41724;51.176;-0.708;2023-11-22T04:25:30;3;3;
55518;PMS5003;41724;51.176;-0.708;2023-11-22T04:27:57;3;3;
55518;PMS5003;41724;51.176;-0.708;2023-11-22T04:30:24;4;4;
55518;PMS5003;41724;51.176;-0.708;2023-11-22T04:32:51;4;4;
55518;PMS5003;41724;51.176;-0.708;2023-11-22T04:35:19;3;2;
55518;PMS5003;41724;51.176;-0.708;2023-11-22T04:37:46;3;3;
55518;PMS5003;41724;51.176;-0.708;2023-11-22T04:40:13;5;4;
55518;PMS5003;41724;51.176;-0.708;2023-11-22T04:42:40;5;5;
55518;PMS5003;41724;51.176;-0.708;2023-11-22T04:45:08;2;2;
55518;PMS5003;41724;51.176;-0.708;2023-11-22T04:47:36;3;3;
55518;PMS5003;41724;51.176;-0.708;2023-11-22T04:50:03;4;3;
55518;PMS5003;41724;51.176;-0.708;2023-11-22T04:52:31;1;1;
55518;PMS5003;41724;51.176;-0.708;2023-11-22T04:54:59;3;3;
55518;PMS5003;41724;51.176;-0.708;2023-11-22T04:57:26;3;3;
55518;PMS5003;41724;51.176;-0.708;2023-11-22T04:59:54;4;4;
55518;PMS5003;41724;51.176;-0.708;2023-11-22T05:02:21;4;4;
55518;PMS5003;41724;51.176;-0.708;2023-11-22T05:04:48;6;5;
55518;PMS5003;41724;51.176;-0.708;2023-11-22T05:07:15;3;3;
55518;PMS5003;41724;51.176;-0.708;2023-11-22T05:09:43;2;2;
55518;PMS5003;41724;51.176;-0.708;2023-11-22T05:12:10;3;3;
55518;PMS5003;41724;51.176;-0.708;2023-11-22T05:14:37;3;3;
55518;PMS5003;41724;51.176;-0.708;2023-11-22T05:17:04;4;4;
55518;PMS5003;41724;51.176;-0.708;2023-11-22T05:19:32;5;5;
55518;PMS5003;41724;51.176;-0.708;2023-11-22T05:21:59;4;3;
55518;PMS5003;41724;51.176;-0.708;2023-11-22T05:24:26;4;4;
55518;PMS5003;41724;51.176;-0.708;2023-11-22T05:26:53;5;3;
55518;PMS5003;41724;51.176;-0.708;2023-11-22T05:29:20;4;3;
55518;PMS5003;41724;51.176;-0.708;2023-11-22T05:31:48;4;4;
55518;PMS5003;41724;51.176;-0.708;2023-11-22T05:34:15;5;5;
55518;PMS5003;41724;51.176;-0.708;2023-11-22T05:36:42;4;4;
55518;PMS5003;41724;51.176;-0.708;2023-11-22T05:39:09;3;3;
55518;PMS5003;41724;51.176;-0.708;2023-11-22T05:41:37;5;4;
55518;PMS5003;41724;51.176;-0.708;2023-11-22T05:44:04;3;3;
55518;PMS5003;41724;51.176;-0.708;2023-11-22T05:46:31;5;4;
55518;PMS5003;41724;51.176;-0.708;2023-11-22T05:48:58;5;3;
55518;PMS5003;41724;51.176;-0.708;2023-11-22T05:51:25;5;5;
55518;PMS5003;41724;51.176;-0.708;2023-11-22T05:53:52;5;3;
55518;PMS5003;41724;51.176;-0.708;2023-11-22T05:56:20;6;6;
55518;PMS5003;41724;51.176;-0.708;2023-11-22T05:58:47;7;7;
55518;PMS5003;41724;51.176;-0.708;2023-11-22T06:01:13;6;6;
55518;PMS5003;41724;51.176;-0.708;2023-11-22T06:03:41;6;5;
55518;PMS5003;41724;51.176;-0.708;2023-11-22T06:06:09;5;4;
55518;PMS5003;41724;51.176;-0.708;2023-11-22T06:08:36;5;5;
55518;PMS5003;41724;51.176;-0.708;2023-11-22T06:11:03;7;6;
55518;PMS5003;41724;51.176;-0.708;2023-11-22T06:13:31;7;7;
55518;PMS5003;41724;51.176;-0.708;2023-11-22T06:15:58;5;5;
55518;PMS5003;41724;51.176;-0.708;2023-11-22T06:18:25;6;6;
55518;PMS5003;41724;51.176;-0.708;2023-11-22T06:20:52;5;4;
55518;PMS5003;41724;51.176;-0.708;2023-11-22T06:23:20;5;5;
55518;PMS5003;41724;51.176;-0.708;2023-11-22T06:25:47;7;7;
55518;PMS5003;41724;51.176;-0.708;2023-11-22T06:28:14;5;5;
55518;PMS5003;41724;51.176;-0.708;2023-11-22T06:30:41;6;5;
55518;PMS5003;41724;51.176;-0.708;2023-11-22T06:33:09;4;4;
55518;PMS5003;41724;51.176;-0.708;2023-11-22T06:35:36;4;4;
55518;PMS5003;41724;51.176;-0.708;2023-11-22T06:38:03;7;6;
55518;PMS5003;41724;51.176;-0.708;2023-11-22T06:40:31;5;4;
55518;PMS5003;41724;51.176;-0.708;2023-11-22T06:42:58;6;5;
55518;PMS5003;41724;51.176;-0.708;2023-11-22T06:45:25;7;5;
55518;PMS5003;41724;51.176;-0.708;2023-11-22T06:47:52;5;5;
55518;PMS5003;41724;51.176;-0.708;2023-11-22T06:50:20;6;5;
55518;PMS5003;41724;51.176;-0.708;2023-11-22T06:52:47;9;7;
55518;PMS5003;41724;51.176;-0.708;2023-11-22T06:55:14;7;6;
55518;PMS5003;41724;51.176;-0.708;2023-11-22T06:57:41;6;6;
55518;PMS5003;41724;51.176;-0.708;2023-11-22T07:00:09;3;3;
55518;PMS5003;41724;51.176;-0.708;2023-11-22T07:02:37;5;5;
55518;PMS5003;41724;51.176;-0.708;2023-11-22T07:05:04;5;4;
55518;PMS5003;41724;51.176;-0.708;2023-11-22T07:07:32;7;6;
55518;PMS5003;41724;51.176;-0.708;2023-11-22T07:09:59;5;5;
55518;PMS5003;41724;51.176;-0.708;2023-11-22T07:12:27;5;5;
55518;PMS5003;41724;51.176;-0.708;2023-11-22T07:14:54;5;5;
55518;PMS5003;41724;51.176;-0.708;2023-11-22T07:17:21;8;7;
55518;PMS5003;41724;51.176;-0.708;2023-11-22T07:19:48;13;12;
55518;PMS5003;41724;51.176;-0.708;2023-11-22T07:22:15;8;8;
55518;PMS5003;41724;51.176;-0.708;2023-11-22T07:24:43;7;6;
55518;PMS5003;41724;51.176;-0.708;2023-11-22T07:27:11;12;10;
55518;PMS5003;41724;51.176;-0.708;2023-11-22T07:29:39;11;10;
55518;PMS5003;41724;51.176;-0.708;2023-11-22T07:32:07;8;8;
55518;PMS5003;41724;51.176;-0.708;2023-11-22T07:34:34;10;7;
55518;PMS5003;41724;51.176;-0.708;2023-11-22T07:37:02;7;7;
55518;PMS5003;41724;51.176;-0.708;2023-11-22T07:39:30;7;6;
55518;PMS5003;41724;51.176;-0.708;2023-11-22T07:41:57;8;8;
55518;PMS5003;41724;51.176;-0.708;2023-11-22T07:44:24;10;10;
55518;PMS5003;41724;51.176;-0.708;2023-11-22T07:46:51;8;8;
55518;PMS5003;41724;51.176;-0.708;2023-11-22T07:49:19;10;10;
55518;PMS5003;41724;51.176;-0.708;2023-11-22T07:51:46;7;7;
55518;PMS5003;41724;51.176;-0.708;2023-11-22T07:54:13;8;8;
55518;PMS5003;41724;51.176;-0.708;2023-11-22T07:56:41;8;8;
55518;PMS5003;41724;51.176;-0.708;2023-11-22T07:59:08;10;10;
55518;PMS5003;41724;51.176;-0.708;2023-11-22T08:01:35;14;13;
55518;PMS5003;41724;51.176;-0.708;2023-11-22T08:04:02;8;8;
55518;PMS5003;41724;51.176;-0.708;2023-11-22T08:06:30;10;10;
55518;PMS5003;41724;51.176;-0.708;2023-11-22T08:08:58;14;11;
55518;PMS5003;41724;51.176;-0.708;2023-11-22T08:11:25;9;8;
55518;PMS5003;41724;51.176;-0.708;2023-11-22T08:13:52;9;9;
55518;PMS5003;41724;51.176;-0.708;2023-11-22T08:16:19;11;11;
55518;PMS5003;41724;51.176;-0.708;2023-11-22T08:18:46;8;8;
55518;PMS5003;41724;51.176;-0.708;2023-11-22T08:21:14;7;7;
55518;PMS5003;41724;51.176;-0.708;2023-11-22T08:23:41;11;11;
55518;PMS5003;41724;51.176;-0.708;2023-11-22T08:26:08;8;7;
55518;PMS5003;41724;51.176;-0.708;2023-11-22T08:28:35;9;7;
55518;PMS5003;41724;51.176;-0.708;2023-11-22T08:31:03;9;9;
55518;PMS5003;41724;51.176;-0.708;2023-11-22T08:33:30;9;8;
55518;PMS5003;41724;51.176;-0.708;2023-11-22T08:35:57;11;9;
55518;PMS5003;41724;51.176;-0.708;2023-11-22T08:38:24;7;7;
55518;PMS5003;41724;51.176;-0.708;2023-11-22T08:40:51;12;9;
55518;PMS5003;41724;51.176;-0.708;2023-11-22T08:43:19;9;8;
55518;PMS5003;41724;51.176;-0.708;2023-11-22T08:45:46;8;8;
55518;PMS5003;41724;51.176;-0.708;2023-11-22T08:48:13;8;8;
55518;PMS5003;41724;51.176;-0.708;2023-11-22T08:50:40;11;11;
55518;PMS5003;41724;51.176;-0.708;2023-11-22T08:53:08;10;10;
55518;PMS5003;41724;51.176;-0.708;2023-11-22T08:55:34;9;9;
55518;PMS5003;41724;51.176;-0.708;2023-11-22T08:58:02;12;12;
55518;PMS5003;41724;51.176;-0.708;2023-11-22T09:00:29;11;11;
55518;PMS5003;41724;51.176;-0.708;2023-11-22T09:02:56;9;9;
55518;PMS5003;41724;51.176;-0.708;2023-11-22T09:05:23;9;8;
55518;PMS5003;41724;51.176;-0.708;2023-11-22T09:07:50;15;13;
55518;PMS5003;41724;51.176;-0.708;2023-11-22T09:10:18;10;9;
55518;PMS5003;41724;51.176;-0.708;2023-11-22T09:12:45;13;12;
55518;PMS5003;41724;51.176;-0.708;2023-11-22T09:15:13;11;11;
55518;PMS5003;41724;51.176;-0.708;2023-11-22T09:17:41;13;13;
55518;PMS5003;41724;51.176;-0.708;2023-11-22T09:20:09;41;30;
55518;PMS5003;41724;51.176;-0.708;2023-11-22T09:22:36;15;12;
55518;PMS5003;41724;51.176;-0.708;2023-11-22T09:25:03;13;12;
55518;PMS5003;41724;51.176;-0.708;2023-11-22T09:27:31;16;14;
55518;PMS5003;41724;51.176;-0.708;2023-11-22T09:29:58;12;10;
55518;PMS5003;41724;51.176;-0.708;2023-11-22T09:32:25;8;8;
55518;PMS5003;41724;51.176;-0.708;2023-11-22T09:34:52;11;11;
55518;PMS5003;41724;51.176;-0.708;2023-11-22T09:37:19;9;9;
55518;PMS5003;41724;51.176;-0.708;2023-11-22T09:39:46;8;7;
55518;PMS5003;41724;51.176;-0.708;2023-11-22T09:42:13;8;7;
55518;PMS5003;41724;51.176;-0.708;2023-11-22T09:44:40;6;6;
55518;PMS5003;41724;51.176;-0.708;2023-11-22T09:47:07;6;6;
55518;PMS5003;41724;51.176;-0.708;2023-11-22T09:49:34;7;6;
55518;PMS5003;41724;51.176;-0.708;2023-11-22T09:52:06;8;8;
55518;PMS5003;41724;51.176;-0.708;2023-11-22T09:54:41;7;6;
55518;PMS5003;41724;51.176;-0.708;2023-11-22T09:57:09;8;7;
55518;PMS5003;41724;51.176;-0.708;2023-11-22T09:59:37;21;20;
55518;PMS5003;41724;51.176;-0.708;2023-11-22T10:02:07;14;13;
55518;PMS5003;41724;51.176;-0.708;2023-11-22T10:04:35;13;11;
55518;PMS5003;41724;51.176;-0.708;2023-11-22T10:07:03;32;29;
55518;PMS5003;41724;51.176;-0.708;2023-11-22T10:09:30;19;19;
55518;PMS5003;41724;51.176;-0.708;2023-11-22T10:11:58;13;13;
55518;PMS5003;41724;51.176;-0.708;2023-11-22T10:14:28;11;11;
55518;PMS5003;41724;51.176;-0.708;2023-11-22T10:17:00;15;14;
55518;PMS5003;41724;51.176;-0.708;2023-11-22T10:19:28;8;8;
55518;PMS5003;41724;51.176;-0.708;2023-11-22T10:22:03;12;10;
55518;PMS5003;41724;51.176;-0.708;2023-11-22T10:24:31;9;9;
55518;PMS5003;41724;51.176;-0.708;2023-11-22T10:26:59;9;7;
55518;PMS5003;41724;51.176;-0.708;2023-11-22T10:29:26;7;7;
55518;PMS5003;41724;51.176;-0.708;2023-11-22T10:31:53;5;5;
55518;PMS5003;41724;51.176;-0.708;2023-11-22T10:34:20;5;5;
55518;PMS5003;41724;51.176;-0.708;2023-11-22T10:36:47;9;6;
55518;PMS5003;41724;51.176;-0.708;2023-11-22T10:39:18;10;8;
55518;PMS5003;41724;51.176;-0.708;2023-11-22T10:41:46;10;7;
55518;PMS5003;41724;51.176;-0.708;2023-11-22T10:44:13;31;24;
55518;PMS5003;41724;51.176;-0.708;2023-11-22T10:46:42;7;7;
55518;PMS5003;41724;51.176;-0.708;2023-11-22T10:49:09;7;7;
55518;PMS5003;41724;51.176;-0.708;2023-11-22T10:51:36;9;9;
55518;PMS5003;41724;51.176;-0.708;2023-11-22T10:54:07;18;18;
55518;PMS5003;41724;51.176;-0.708;2023-11-22T10:56:36;47;45;
55518;PMS5003;41724;51.176;-0.708;2023-11-22T10:59:06;57;57;
55518;PMS5003;41724;51.176;-0.708;2023-11-22T11:01:36;82;78;
55518;PMS5003;41724;51.176;-0.708;2023-11-22T11:04:08;77;72;
55518;PMS5003;41724;51.176;-0.708;2023-11-22T11:06:37;90;79;
55518;PMS5003;41724;51.176;-0.708;2023-11-22T11:09:05;70;64;
55518;PMS5003;41724;51.176;-0.708;2023-11-22T11:11:32;74;68;
55518;PMS5003;41724;51.176;-0.708;2023-11-22T11:14:02;64;62;
55518;PMS5003;41724;51.176;-0.708;2023-11-22T11:16:35;45;42;
55518;PMS5003;41724;51.176;-0.708;2023-11-22T11:19:05;35;33;
55518;PMS5003;41724;51.176;-0.708;2023-11-22T11:21:32;48;43;
55518;PMS5003;41724;51.176;-0.708;2023-11-22T11:24:00;45;41;
55518;PMS5003;41724;51.176;-0.708;2023-11-22T11:26:27;47;44;
55518;PMS5003;41724;51.176;-0.708;2023-11-22T11:28:54;32;32;
55518;PMS5003;41724;51.176;-0.708;2023-11-22T11:31:21;32;29;
55518;PMS5003;41724;51.176;-0.708;2023-11-22T11:33:56;33;30;
55518;PMS5003;41724;51.176;-0.708;2023-11-22T11:36:25;33;30;
55518;PMS5003;41724;51.176;-0.708;2023-11-22T11:38:54;23;22;
55518;PMS5003;41724;51.176;-0.708;2023-11-22T11:41:25;23;22;
55518;PMS5003;41724;51.176;-0.708;2023-11-22T11:43:52;27;25;
55518;PMS5003;41724;51.176;-0.708;2023-11-22T11:46:21;32;28;
55518;PMS5003;41724;51.176;-0.708;2023-11-22T11:48:48;65;53;
55518;PMS5003;41724;51.176;-0.708;2023-11-22T11:51:16;60;56;
55518;PMS5003;41724;51.176;-0.708;2023-11-22T11:53:44;53;50;
55518;PMS5003;41724;51.176;-0.708;2023-11-22T11:56:12;49;48;
55518;PMS5003;41724;51.176;-0.708;2023-11-22T11:58:40;44;43;
55518;PMS5003;41724;51.176;-0.708;2023-11-22T12:01:08;44;40;
55518;PMS5003;41724;51.176;-0.708;2023-11-22T12:03:38;32;30;
55518;PMS5003;41724;51.176;-0.708;2023-11-22T12:06:06;27;27;
55518;PMS5003;41724;51.176;-0.708;2023-11-22T12:08:34;38;36;
55518;PMS5003;41724;51.176;-0.708;2023-11-22T12:11:02;47;46;
55518;PMS5003;41724;51.176;-0.708;2023-11-22T12:13:29;49;49;
55518;PMS5003;41724;51.176;-0.708;2023-11-22T12:15:57;54;52;
55518;PMS5003;41724;51.176;-0.708;2023-11-22T12:18:24;40;38;
55518;PMS5003;41724;51.176;-0.708;2023-11-22T12:20:55;38;36;
55518;PMS5003;41724;51.176;-0.708;2023-11-22T12:23:23;29;27;
55518;PMS5003;41724;51.176;-0.708;2023-11-22T12:25:55;27;26;
55518;PMS5003;41724;51.176;-0.708;2023-11-22T12:28:23;13;12;
55518;PMS5003;41724;51.176;-0.708;2023-11-22T12:30:52;8;7;
55518;PMS5003;41724;51.176;-0.708;2023-11-22T12:33:19;6;6;
55518;PMS5003;41724;51.176;-0.708;2023-11-22T12:35:46;5;5;
55518;PMS5003;41724;51.176;-0.708;2023-11-22T12:38:13;4;4;
55518;PMS5003;41724;51.176;-0.708;2023-11-22T12:40:44;6;6;
55518;PMS5003;41724;51.176;-0.708;2023-11-22T12:43:12;8;6;
55518;PMS5003;41724;51.176;-0.708;2023-11-22T12:45:40;6;6;
55518;PMS5003;41724;51.176;-0.708;2023-11-22T12:48:23;21;18;
55518;PMS5003;41724;51.176;-0.708;2023-11-22T12:50:51;15;14;
55518;PMS5003;41724;51.176;-0.708;2023-11-22T12:53:18;18;16;
55518;PMS5003;41724;51.176;-0.708;2023-11-22T12:55:46;18;17;
55518;PMS5003;41724;51.176;-0.708;2023-11-22T12:58:14;16;16;
55518;PMS5003;41724;51.176;-0.708;2023-11-22T13:00:41;10;9;
55518;PMS5003;41724;51.176;-0.708;2023-11-22T13:03:10;12;12;
55518;PMS5003;41724;51.176;-0.708;2023-11-22T13:05:38;16;14;
55518;PMS5003;41724;51.176;-0.708;2023-11-22T13:08:07;31;27;
55518;PMS5003;41724;51.176;-0.708;2023-11-22T13:10:34;15;14;
55518;PMS5003;41724;51.176;-0.708;2023-11-22T13:13:01;16;15;
55518;PMS5003;41724;51.176;-0.708;2023-11-22T13:15:29;16;14;
55518;PMS5003;41724;51.176;-0.708;2023-11-22T13:17:56;25;24;
55518;PMS5003;41724;51.176;-0.708;2023-11-22T13:20:23;17;16;
55518;PMS5003;41724;51.176;-0.708;2023-11-22T13:22:51;16;15;
55518;PMS5003;41724;51.176;-0.708;2023-11-22T13:25:19;29;21;
55518;PMS5003;41724;51.176;-0.708;2023-11-22T13:27:46;14;13;
55518;PMS5003;41724;51.176;-0.708;2023-11-22T13:30:14;12;9;
55518;PMS5003;41724;51.176;-0.708;2023-11-22T13:32:41;18;18;
55518;PMS5003;41724;51.176;-0.708;2023-11-22T13:35:08;15;15;
55518;PMS5003;41724;51.176;-0.708;2023-11-22T13:37:36;16;14;
55518;PMS5003;41724;51.176;-0.708;2023-11-22T13:40:03;10;10;
55518;PMS5003;41724;51.176;-0.708;2023-11-22T13:42:31;9;7;
55518;PMS5003;41724;51.176;-0.708;2023-11-22T13:44:58;7;6;
55518;PMS5003;41724;51.176;-0.708;2023-11-22T13:47:25;5;5;
55518;PMS5003;41724;51.176;-0.708;2023-11-22T13:49:52;6;6;
55518;PMS5003;41724;51.176;-0.708;2023-11-22T13:52:19;6;6;
55518;PMS5003;41724;51.176;-0.708;2023-11-22T13:54:46;6;5;
55518;PMS5003;41724;51.176;-0.708;2023-11-22T13:57:13;6;6;
55518;PMS5003;41724;51.176;-0.708;2023-11-22T13:59:40;9;7;
55518;PMS5003;41724;51.176;-0.708;2023-11-22T14:02:07;4;4;
55518;PMS5003;41724;51.176;-0.708;2023-11-22T14:04:34;7;6;
55518;PMS5003;41724;51.176;-0.708;2023-11-22T14:07:01;5;5;
55518;PMS5003;41724;51.176;-0.708;2023-11-22T14:09:28;4;4;
55518;PMS5003;41724;51.176;-0.708;2023-11-22T14:11:56;5;5;
55518;PMS5003;41724;51.176;-0.708;2023-11-22T14:14:23;4;4;
55518;PMS5003;41724;51.176;-0.708;2023-11-22T14:16:50;5;4;
55518;PMS5003;41724;51.176;-0.708;2023-11-22T14:19:17;5;4;
55518;PMS5003;41724;51.176;-0.708;2023-11-22T14:21:44;5;4;
55518;PMS5003;41724;51.176;-0.708;2023-11-22T14:24:11;7;5;
55518;PMS5003;41724;51.176;-0.708;2023-11-22T14:26:38;5;5;
55518;PMS5003;41724;51.176;-0.708;2023-11-22T14:29:05;4;4;
55518;PMS5003;41724;51.176;-0.708;2023-11-22T14:31:32;8;5;
55518;PMS5003;41724;51.176;-0.708;2023-11-22T14:33:59;4;4;
55518;PMS5003;41724;51.176;-0.708;2023-11-22T14:36:26;6;5;
55518;PMS5003;41724;51.176;-0.708;2023-11-22T14:38:53;8;8;
55518;PMS5003;41724;51.176;-0.708;2023-11-22T14:41:20;4;4;
55518;PMS5003;41724;51.176;-0.708;2023-11-22T14:43:47;5;4;
55518;PMS5003;41724;51.176;-0.708;2023-11-22T14:46:14;5;5;
55518;PMS5003;41724;51.176;-0.708;2023-11-22T14:48:42;7;7;
55518;PMS5003;41724;51.176;-0.708;2023-11-22T14:51:08;6;6;
55518;PMS5003;41724;51.176;-0.708;2023-11-22T14:53:35;5;5;
55518;PMS5003;41724;51.176;-0.708;2023-11-22T14:56:02;7;7;
55518;PMS5003;41724;51.176;-0.708;2023-11-22T14:58:30;7;7;
55518;PMS5003;41724;51.176;-0.708;2023-11-22T15:00:57;14;14;
55518;PMS5003;41724;51.176;-0.708;2023-11-22T15:03:24;6;6;
55518;PMS5003;41724;51.176;-0.708;2023-11-22T15:05:51;8;7;
55518;PMS5003;41724;51.176;-0.708;2023-11-22T15:08:18;11;10;
55518;PMS5003;41724;51.176;-0.708;2023-11-22T15:10:45;8;7;
55518;PMS5003;41724;51.176;-0.708;2023-11-22T15:13:12;7;6;
55518;PMS5003;41724;51.176;-0.708;2023-11-22T15:15:39;8;6;
55518;PMS5003;41724;51.176;-0.708;2023-11-22T15:18:06;5;5;
55518;PMS5003;41724;51.176;-0.708;2023-11-22T15:20:33;8;8;
55518;PMS5003;41724;51.176;-0.708;2023-11-22T15:23:00;7;7;
55518;PMS5003;41724;51.176;-0.708;2023-11-22T15:25:28;9;8;
55518;PMS5003;41724;51.176;-0.708;2023-11-22T15:27:54;6;6;
55518;PMS5003;41724;51.176;-0.708;2023-11-22T15:30:21;7;7;
55518;PMS5003;41724;51.176;-0.708;2023-11-22T15:32:49;8;6;
55518;PMS5003;41724;51.176;-0.708;2023-11-22T15:35:15;7;7;
55518;PMS5003;41724;51.176;-0.708;2023-11-22T15:37:42;6;6;
55518;PMS5003;41724;51.176;-0.708;2023-11-22T15:40:10;7;5;
55518;PMS5003;41724;51.176;-0.708;2023-11-22T15:42:38;9;7;
55518;PMS5003;41724;51.176;-0.708;2023-11-22T15:45:05;6;6;
55518;PMS5003;41724;51.176;-0.708;2023-11-22T15:47:34;5;5;
55518;PMS5003;41724;51.176;-0.708;2023-11-22T15:50:01;6;6;
55518;PMS5003;41724;51.176;-0.708;2023-11-22T15:52:28;6;5;
55518;PMS5003;41724;51.176;-0.708;2023-11-22T15:54:56;5;5;
55518;PMS5003;41724;51.176;-0.708;2023-11-22T15:57:23;5;5;
55518;PMS5003;41724;51.176;-0.708;2023-11-22T15:59:51;6;5;
55518;PMS5003;41724;51.176;-0.708;2023-11-22T16:02:18;6;5;
55518;PMS5003;41724;51.176;-0.708;2023-11-22T16:04:45;4;4;
55518;PMS5003;41724;51.176;-0.708;2023-11-22T16:07:12;5;5;
55518;PMS5003;41724;51.176;-0.708;2023-11-22T16:09:39;4;4;
55518;PMS5003;41724;51.176;-0.708;2023-11-22T16:12:07;7;7;
55518;PMS5003;41724;51.176;-0.708;2023-11-22T16:14:34;7;6;
55518;PMS5003;41724;51.176;-0.708;2023-11-22T16:17:01;6;6;
55518;PMS5003;41724;51.176;-0.708;2023-11-22T16:19:29;13;13;
55518;PMS5003;41724;51.176;-0.708;2023-11-22T16:21:56;8;8;
55518;PMS5003;41724;51.176;-0.708;2023-11-22T16:24:24;14;13;
55518;PMS5003;41724;51.176;-0.708;2023-11-22T16:26:50;7;6;
55518;PMS5003;41724;51.176;-0.708;2023-11-22T16:29:18;8;8;